Date,TemperatureHighF,TemperatureAvgF,TemperatureLowF,DewpointHighF,DewpointAvgF,DewpointLowF,HumidityHigh,HumidityAvg,HumidityLow,PressureMaxIn,PressureMinIn,WindSpeedMaxMPH,WindSpeedAvgMPH,GustSpeedMaxMPH,PrecipitationSumIn
2013-1-1,39.9,37.0,33.8,38.0,35.1,32.2,97,93,90,30.47,30.33,10,2,10,0.00
2013-1-2,42.1,35.4,31.9,36.8,32.0,25.0,99,88,62,30.33,30.17,8,2,8,0.01
2013-1-3,40.8,35.9,30.6,37.0,30.3,22.7,98,81,56,30.18,30.07,7,1,7,0.29
2013-1-4,46.5,43.0,37.5,46.5,42.9,37.0,100,100,98,30.27,30.15,10,1,10,0.02
2013-1-5,44.3,42.4,41.1,44.2,41.8,40.2,100,98,90,30.17,30.09,9,0,9,0.08
2013-1-6,44.8,42.3,39.1,43.0,41.0,38.8,100,95,88,30.15,29.96,10,1,10,0.02
2013-1-7,51.6,46.7,42.6,50.7,45.5,41.3,100,96,89,30.12,29.76,12,1,12,0.03
2013-1-8,50.4,46.2,42.6,50.4,45.5,42.1,100,97,89,30.13,29.69,13,1,13,0.74
2013-1-9,49.8,42.0,36.2,49.8,41.8,35.2,100,99,96,29.92,29.64,17,1,17,0.70
2013-1-10,38.6,35.7,32.8,38.6,35.2,32.3,100,98,96,30.10,29.92,7,0,7,0.01
2013-1-11,36.3,32.4,29.5,32.6,29.0,25.1,98,87,71,30.30,30.09,12,3,12,0.00
2013-1-12,35.5,31.8,28.8,32.9,29.2,27.1,99,90,75,30.42,30.30,12,2,12,0.00
2013-1-13,36.2,31.6,28.5,33.6,29.3,27.3,98,91,75,30.47,30.41,5,1,5,0.01
2013-1-14,39.1,34.1,31.9,34.7,31.3,29.5,95,90,74,30.55,30.45,7,0,7,0.00
2013-1-15,42.2,36.4,32.4,38.6,34.0,31.0,98,91,79,30.67,30.55,7,2,7,0.00
2013-1-16,39.5,34.5,30.4,38.7,33.5,29.9,100,96,87,30.66,30.50,9,2,9,0.00
2013-1-17,37.9,35.5,32.5,37.9,35.4,32.3,100,99,98,30.50,30.27,5,1,5,0.00
2013-1-18,38.6,36.6,35.5,38.6,36.5,35.1,100,100,98,30.33,30.24,8,1,8,0.01
2013-1-19,37.8,36.7,35.6,37.5,36.3,35.3,100,99,97,30.36,30.32,8,1,8,0.00
2013-1-20,40.3,38.4,36.3,39.9,38.1,36.0,100,99,97,30.37,30.24,10,1,10,0.00
2013-1-21,38.6,37.0,35.9,38.6,36.8,35.1,100,99,97,30.25,30.11,8,0,8,0.00
2013-1-22,40.1,36.7,33.5,39.8,36.0,33.0,100,97,94,30.12,29.89,4,0,4,0.00
2013-1-23,42.9,41.2,38.3,42.0,40.3,38.0,100,97,85,30.11,29.82,8,0,8,0.27
2013-1-24,44.2,41.5,39.2,43.6,41.1,39.2,100,98,92,30.18,30.02,5,0,5,0.16
2013-1-25,48.8,44.3,38.8,48.8,43.8,37.8,100,98,94,30.03,29.89,7,0,7,0.03
2013-1-26,44.2,41.2,38.3,44.1,40.7,37.3,100,98,95,30.01,29.85,11,0,11,0.16
2013-1-27,41.9,39.6,35.6,41.8,38.8,35.1,100,97,93,30.03,29.96,8,0,8,0.00
2013-1-28,41.8,40.2,37.9,41.8,39.9,37.4,100,99,96,30.07,29.98,7,0,7,0.19
2013-1-29,47.7,44.3,41.1,47.7,44.3,41.1,100,100,100,30.30,30.06,5,0,5,0.21
2013-1-30,48.2,46.3,44.6,48.2,46.3,44.5,100,100,100,30.35,30.29,4,0,4,0.08
2013-1-31,48.5,46.7,45.4,48.5,46.7,45.4,100,100,100,30.37,30.26,11,0,11,0.07
2013-2-1,47.7,45.5,42.9,47.7,45.1,42.4,100,99,94,30.39,30.31,10,1,10,0.01
2013-2-2,43.9,42.7,40.9,43.9,42.2,40.3,100,98,96,30.36,30.24,15,2,15,0.00
2013-2-3,48.2,44.4,41.1,46.8,43.7,40.4,100,97,91,30.27,30.18,8,0,8,0.02
2013-2-4,49.6,45.9,43.6,46.1,44.2,42.8,100,94,85,30.18,29.86,8,1,8,0.01
2013-2-5,51.1,45.5,42.9,48.0,44.2,42.1,100,95,83,29.90,29.80,19,1,19,0.22
2013-2-6,50.1,45.0,42.5,45.5,43.5,42.0,99,95,81,30.02,29.76,12,1,12,0.13
2013-2-7,50.5,43.0,37.5,43.5,39.8,35.5,97,89,69,30.16,29.76,13,1,13,0.05
2013-2-8,45.5,40.4,35.0,42.9,38.5,34.0,100,93,81,30.29,30.16,8,1,8,0.00
2013-2-9,45.7,42.1,39.5,42.9,40.8,38.6,100,95,84,30.32,30.24,5,1,5,0.04
2013-2-10,43.5,41.7,38.9,43.0,41.2,38.4,100,98,95,30.36,30.30,9,1,9,0.00
2013-2-11,48.0,43.6,40.6,45.2,42.3,40.5,100,95,83,30.33,30.30,7,0,7,0.01
2013-2-12,49.6,46.2,43.6,48.9,45.6,43.1,100,98,93,30.38,30.23,18,0,18,0.02
2013-2-13,48.0,45.8,43.8,46.6,44.7,42.7,98,96,93,30.47,30.28,12,1,12,0.00
2013-2-14,47.9,45.2,42.8,46.8,44.7,42.3,100,98,95,30.53,30.47,7,0,7,0.02
2013-2-15,51.1,45.7,39.6,48.2,44.4,39.1,100,96,86,30.53,30.16,11,2,11,0.00
2013-2-16,56.2,44.7,39.2,50.0,43.6,39.0,100,96,69,30.17,30.08,20,2,20,0.02
2013-2-17,46.1,40.8,37.2,42.7,38.9,36.4,98,93,84,30.22,30.09,6,1,6,0.00
2013-2-18,47.9,41.4,37.3,43.2,38.7,36.5,100,91,75,30.09,29.74,8,0,8,0.00
2013-2-19,48.8,41.4,35.6,43.3,37.9,34.3,97,88,64,29.99,29.72,15,2,15,0.00
2013-2-20,45.7,40.6,35.3,42.0,39.3,34.0,99,95,84,30.02,29.96,17,0,17,0.16
2013-2-21,44.6,41.9,38.6,42.7,40.5,38.3,100,95,87,30.04,29.98,13,0,13,0.01
2013-2-22,45.8,41.9,36.5,45.2,40.2,34.2,99,94,82,30.01,29.64,19,2,19,0.22
2013-2-23,48.9,42.1,35.8,43.6,38.8,34.2,99,88,76,30.34,29.87,15,2,15,0.00
2013-2-24,47.9,44.1,40.2,41.2,38.9,36.6,90,82,74,30.35,29.92,15,1,15,0.05
2013-2-25,53.2,43.2,36.3,41.6,38.0,32.6,98,84,48,30.28,29.84,15,1,15,0.15
2013-2-26,48.6,42.2,35.8,41.8,37.5,34.1,98,84,67,30.32,30.16,11,0,11,0.03
2013-2-27,48.9,43.7,38.8,45.2,42.1,37.3,100,94,82,30.27,30.18,7,0,7,0.22
2013-2-28,51.6,46.9,42.8,51.6,46.9,42.6,100,100,100,30.29,30.17,12,0,13,0.35
2013-3-1,56.0,52.2,50.4,55.4,51.7,50.0,100,98,94,30.33,30.24,13,1,13,0.10
2013-3-2,56.5,49.6,40.5,51.9,47.4,39.3,98,92,81,30.24,30.04,24,3,24,0.06
2013-3-3,50.2,41.5,34.7,45.0,38.4,34.2,100,89,73,30.29,30.18,12,2,12,0.02
2013-3-4,50.5,41.4,35.2,42.2,36.2,33.9,97,83,61,30.28,29.91,14,3,14,0.00
2013-3-5,51.0,43.6,38.8,43.0,39.0,33.2,97,84,71,29.91,29.71,7,1,7,0.03
2013-3-6,43.3,42.0,40.9,42.6,41.2,40.4,100,97,91,29.87,29.56,11,1,11,0.44
2013-3-7,51.9,44.4,41.1,49.2,43.1,40.4,100,96,78,30.07,29.87,7,1,7,0.10
2013-3-8,51.9,43.8,37.9,47.0,41.6,36.5,100,93,76,30.22,30.05,12,3,12,0.00
2013-3-9,48.8,40.9,34.9,47.1,39.5,34.4,100,95,86,30.47,30.22,6,2,6,0.00
2013-3-10,48.3,42.8,37.3,46.0,41.5,36.5,100,95,81,30.47,30.41,6,1,6,0.02
2013-3-11,51.7,46.2,42.2,47.0,44.6,42.2,100,94,81,30.42,30.13,5,1,5,0.02
2013-3-12,54.4,51.1,47.3,53.9,50.4,46.8,100,97,89,30.13,30.04,13,1,13,0.06
2013-3-13,53.1,50.8,49.5,52.0,50.0,48.8,100,97,94,30.17,30.06,13,1,13,0.04
2013-3-14,53.9,50.4,48.3,49.4,47.9,46.1,99,91,76,30.11,30.01,10,1,10,0.02
2013-3-15,59.5,52.1,47.6,53.0,49.5,45.8,100,91,76,30.18,30.10,10,1,10,0.00
2013-3-16,53.1,46.7,36.9,48.0,43.1,34.8,94,87,69,30.11,29.84,16,1,16,0.02
2013-3-17,53.2,41.3,33.8,43.4,37.1,32.8,100,86,53,30.16,29.95,16,1,16,0.06
2013-3-18,51.7,44.0,37.6,45.2,39.1,35.7,94,83,69,30.22,30.07,18,4,18,0.00
2013-3-19,52.0,43.2,37.6,44.6,39.5,34.8,98,87,64,30.21,29.57,11,1,11,0.53
2013-3-20,52.3,46.5,37.9,50.2,43.1,33.5,100,88,72,29.99,29.34,20,2,20,0.71
2013-3-21,52.9,40.2,35.5,42.0,36.3,33.1,96,86,60,30.19,29.99,18,2,18,0.04
2013-3-22,46.1,38.2,33.5,41.4,34.7,30.5,99,88,64,30.35,30.19,10,2,10,0.01
2013-3-23,49.2,40.2,33.7,42.0,34.9,31.1,95,82,61,30.38,30.28,8,2,8,0.00
2013-3-24,50.1,40.9,33.1,41.8,36.6,31.4,98,85,71,30.28,30.10,6,2,6,0.00
2013-3-25,55.6,46.7,36.6,46.2,38.6,33.6,90,74,56,30.11,29.92,7,2,7,0.00
2013-3-26,56.6,48.9,44.1,47.7,41.5,36.8,87,76,60,30.00,29.94,5,1,5,0.00
2013-3-27,53.6,48.3,43.9,49.3,43.7,38.3,96,84,73,29.97,29.92,6,1,6,0.01
2013-3-28,57.8,49.7,43.9,54.9,47.6,42.8,100,93,77,30.12,29.97,5,1,5,0.15
2013-3-29,56.9,50.1,44.1,51.5,46.8,43.0,100,89,78,30.24,30.13,9,2,9,0.01
2013-3-30,59.0,50.0,41.5,52.8,45.8,40.5,100,86,64,30.24,30.06,12,2,12,0.00
2013-3-31,61.0,53.0,46.8,53.0,46.5,42.2,89,79,71,30.06,29.90,10,2,10,0.00
2013-4-1,60.2,51.6,46.5,52.1,47.5,43.1,96,86,70,30.13,29.94,8,0,8,0.00
2013-4-2,58.0,51.4,46.0,51.0,46.8,43.3,93,85,75,30.18,30.13,9,1,9,0.00
2013-4-3,57.2,50.9,44.5,51.8,46.9,42.9,97,86,71,30.18,29.94,7,1,7,0.00
2013-4-4,53.8,50.7,48.0,53.5,48.9,43.7,99,94,83,29.94,29.62,12,1,12,0.45
2013-4-5,59.3,52.5,48.5,53.6,50.1,46.9,99,92,76,29.83,29.69,15,1,15,0.34
2013-4-6,54.4,48.4,45.1,50.3,46.4,43.3,98,93,77,29.89,29.67,13,1,13,0.43
2013-4-7,48.2,44.2,40.3,47.7,43.0,39.0,98,96,92,29.87,29.50,10,1,10,0.84
2013-4-8,56.5,48.1,42.1,53.0,45.6,41.3,99,91,78,30.24,29.87,6,1,6,0.06
2013-4-9,53.6,48.4,42.3,48.2,43.9,41.0,97,85,69,30.33,30.16,6,0,6,0.00
2013-4-10,63.2,51.4,46.7,58.2,47.4,42.8,99,86,73,30.23,29.91,20,3,20,0.26
2013-4-11,50.7,46.8,43.8,48.2,42.5,38.6,98,85,68,30.28,30.18,13,3,13,0.04
2013-4-12,46.4,44.0,41.2,44.4,40.9,38.6,97,89,76,30.18,29.64,15,1,15,0.14
2013-4-13,56.0,44.1,36.0,48.0,40.8,34.7,97,89,63,29.98,29.72,16,1,16,0.26
2013-4-14,53.9,44.2,37.9,48.5,40.7,36.6,98,88,65,29.99,29.90,13,2,13,0.04
2013-4-15,54.1,45.0,36.3,48.2,40.9,35.0,99,86,68,30.16,29.93,19,3,19,0.00
2013-4-16,56.9,45.8,37.6,47.8,40.5,35.8,98,83,58,30.37,30.16,13,3,13,0.00
2013-4-17,58.6,48.5,39.6,48.3,42.3,35.2,94,80,59,30.43,30.37,16,2,16,0.00
2013-4-18,50.4,47.3,42.2,48.4,43.8,37.8,95,88,81,30.43,30.17,16,1,16,0.04
2013-4-19,55.3,50.8,48.5,55.0,50.1,48.0,99,97,95,30.17,30.04,12,1,12,0.31
2013-4-20,55.4,49.1,45.2,53.9,47.9,44.7,99,96,85,30.25,30.16,16,2,16,0.10
2013-4-21,52.5,46.9,43.8,49.7,44.2,38.7,100,91,72,30.34,30.21,13,1,13,0.03
2013-4-22,55.4,49.1,40.5,47.8,39.1,25.6,93,71,33,30.51,30.34,18,4,18,0.01
2013-4-23,59.8,49.0,36.9,48.1,39.2,32.4,93,70,41,30.41,30.23,14,3,14,0.00
2013-4-24,62.3,53.5,42.6,50.8,42.6,35.6,94,68,45,30.30,30.04,8,2,8,0.00
2013-4-25,64.5,55.2,43.8,53.1,44.7,35.0,86,69,35,30.13,30.02,5,1,5,0.00
2013-4-26,61.2,53.2,45.1,54.3,48.0,43.2,96,83,64,30.24,30.13,8,1,8,0.00
2013-4-27,58.1,53.0,49.9,50.2,46.6,42.6,87,79,71,30.19,30.12,14,1,14,0.00
2013-4-28,57.6,51.2,47.9,51.1,46.8,42.0,95,85,63,30.19,29.93,14,2,14,0.00
2013-4-29,57.8,48.7,44.5,48.9,43.9,37.5,96,84,69,30.13,29.88,20,5,20,0.09
2013-4-30,53.2,47.1,40.1,43.3,38.4,34.4,88,72,56,30.42,30.13,12,3,12,0.00
2013-5-1,60.1,49.7,37.3,46.1,39.5,34.3,94,69,46,30.56,30.42,12,2,12,0.00
2013-5-2,62.9,53.9,43.8,51.3,43.3,35.8,79,68,41,30.53,30.36,15,3,15,0.00
2013-5-3,62.1,56.4,49.9,51.6,46.8,41.4,82,71,55,30.37,30.21,26,6,26,0.00
2013-5-4,71.3,60.8,53.6,54.3,47.8,34.5,80,64,27,30.22,29.98,16,4,16,0.00
2013-5-5,69.6,62.0,53.1,54.6,49.0,43.0,81,63,47,29.98,29.76,9,2,9,0.00
2013-5-6,76.0,64.2,52.8,56.4,50.6,43.6,86,63,34,29.84,29.74,10,1,10,0.00
2013-5-7,65.0,57.5,51.4,55.4,51.4,48.3,91,80,67,29.98,29.80,9,1,9,0.00
2013-5-8,59.5,54.6,51.0,53.2,50.2,47.9,92,85,77,30.13,29.98,7,1,7,0.00
2013-5-9,61.5,53.9,48.5,54.9,50.5,46.9,95,89,77,30.21,30.11,5,1,5,0.00
2013-5-10,61.6,57.3,53.5,54.0,51.7,49.1,86,82,76,30.15,30.10,4,0,4,0.00
2013-5-11,74.7,60.3,51.7,58.2,52.2,48.7,92,76,51,30.16,29.98,7,1,7,0.00
2013-5-12,69.9,61.1,56.5,59.8,55.9,52.2,95,84,64,30.07,29.99,11,1,11,0.06
2013-5-13,64.3,56.7,47.7,57.6,50.8,41.2,91,81,62,30.16,29.91,16,1,16,0.06
2013-5-14,62.1,53.7,46.1,52.9,46.3,42.1,92,77,58,30.21,30.10,7,1,7,0.00
2013-5-15,65.5,54.5,46.2,54.8,48.5,42.6,93,81,59,30.11,30.00,8,1,8,0.03
2013-5-16,63.2,56.8,52.3,57.0,52.6,50.0,96,86,74,30.00,29.85,12,1,12,0.01
2013-5-17,62.6,56.6,51.0,54.4,50.4,46.8,92,80,64,30.04,29.93,12,1,12,0.02
2013-5-18,62.1,55.0,48.5,52.2,48.9,45.8,93,81,64,30.25,30.04,10,0,10,0.00
2013-5-19,59.5,55.0,50.1,53.3,49.9,46.4,91,83,68,30.39,30.25,12,2,12,0.00
2013-5-20,63.5,55.0,46.1,54.6,49.4,44.2,95,82,65,30.34,29.90,13,2,13,0.00
2013-5-21,54.4,49.8,46.0,51.8,47.7,44.1,96,92,84,29.90,29.76,10,1,10,0.62
2013-5-22,54.1,49.2,46.4,52.7,47.1,44.2,96,93,81,29.92,29.83,7,0,7,0.10
2013-5-23,58.9,52.8,46.4,53.9,47.7,44.0,94,83,66,29.99,29.91,9,1,9,0.04
2013-5-24,62.4,53.9,45.1,55.8,48.4,43.6,97,83,61,30.02,29.95,10,1,10,0.00
2013-5-25,61.8,55.2,49.5,53.5,49.3,45.8,91,81,62,30.02,29.95,8,1,8,0.02
2013-5-26,60.7,54.4,49.4,56.3,51.0,47.5,96,89,76,29.97,29.93,8,0,8,0.08
2013-5-27,58.9,54.9,51.4,57.3,52.8,48.3,95,93,87,29.94,29.69,7,0,7,0.22
2013-5-28,64.0,56.2,51.4,56.2,50.6,46.7,94,82,64,29.85,29.75,13,1,13,0.02
2013-5-29,56.3,52.7,50.5,54.9,49.9,47.0,96,90,82,29.94,29.67,12,1,12,0.21
2013-5-30,64.5,55.0,47.6,53.3,48.5,44.8,92,79,58,30.22,29.94,13,1,13,0.01
2013-5-31,64.3,54.9,46.7,56.0,49.3,44.8,96,82,61,30.33,30.22,5,1,5,0.00
2013-6-1,65.8,60.4,49.9,56.8,50.4,45.1,86,70,59,30.24,30.04,12,1,12,0.00
2013-6-2,66.3,59.0,53.9,56.2,51.9,48.2,87,78,61,30.08,30.02,10,2,10,0.00
2013-6-3,65.0,57.0,50.5,56.8,52.4,48.5,95,85,72,30.11,30.05,9,1,9,0.00
2013-6-4,69.1,60.9,51.1,59.6,53.1,48.3,93,76,58,30.12,30.01,7,2,7,0.00
2013-6-5,68.6,60.8,52.8,60.2,54.3,48.8,90,80,68,30.08,30.02,17,2,17,0.00
2013-6-6,69.8,62.4,52.0,59.5,53.2,46.8,94,73,51,30.05,29.99,13,2,13,0.00
2013-6-7,67.3,58.8,53.9,55.7,51.6,47.4,87,77,64,30.14,30.01,14,2,14,0.00
2013-6-8,62.7,57.5,54.4,54.7,51.0,48.0,83,79,72,30.17,30.08,13,3,13,0.00
2013-6-9,63.7,56.8,53.2,55.1,50.7,47.8,87,80,69,30.10,30.01,13,3,13,0.00
2013-6-10,65.8,58.3,49.5,54.8,49.9,44.2,87,74,62,30.02,29.87,12,2,12,0.00
2013-6-11,67.4,56.9,51.6,56.0,48.2,44.0,90,74,46,30.08,29.92,13,1,13,0.07
2013-6-12,65.8,57.5,48.6,54.3,49.4,45.3,93,75,55,30.13,30.07,11,1,11,0.00
2013-6-13,65.8,57.9,50.8,57.6,51.3,47.6,92,79,65,30.20,30.12,11,1,11,0.00
2013-6-14,63.7,56.8,53.2,53.8,50.3,47.8,86,79,65,30.21,30.05,6,0,6,0.00
2013-6-15,65.6,58.5,49.5,56.1,52.2,47.3,93,80,69,30.05,29.91,11,2,11,0.00
2013-6-16,70.3,59.6,51.9,60.4,54.1,49.1,94,82,65,30.07,29.97,8,1,8,0.00
2013-6-17,70.8,61.4,53.1,59.1,53.7,49.2,94,77,50,30.08,29.88,8,1,8,0.01
2013-6-18,72.5,61.9,53.5,58.5,52.3,45.2,95,72,47,29.96,29.85,8,1,8,0.00
2013-6-19,64.7,58.3,52.8,56.2,52.4,49.4,91,81,66,29.98,29.90,5,0,5,0.01
2013-6-20,62.1,56.1,53.5,55.8,52.4,49.1,97,88,75,30.09,29.93,17,1,17,0.23
2013-6-21,68.3,59.5,53.1,62.7,54.6,49.0,98,85,64,30.15,30.08,5,1,5,0.00
2013-6-22,71.1,61.5,51.9,61.0,54.0,49.9,97,77,52,30.11,29.84,5,1,5,0.00
2013-6-23,66.1,61.7,57.5,61.7,57.2,52.7,93,85,76,29.84,29.59,4,0,4,0.10
2013-6-24,67.8,61.5,56.3,59.2,56.6,53.6,96,85,66,29.68,29.56,9,1,9,0.05
2013-6-25,69.9,61.3,56.5,63.3,57.0,53.8,97,86,61,29.83,29.65,6,0,7,0.53
2013-6-26,67.3,61.0,56.5,64.6,58.5,54.8,97,92,80,30.06,29.83,7,0,7,0.30
2013-6-27,67.1,62.1,57.8,64.7,60.2,56.4,97,94,89,30.18,30.03,4,0,4,0.12
2013-6-28,71.3,64.2,58.3,63.7,60.2,56.9,97,87,74,30.18,30.03,6,0,6,0.00
2013-6-29,74.0,66.1,59.8,65.5,60.5,56.0,96,83,65,30.08,29.98,4,0,4,0.01
2013-6-30,76.8,68.2,58.0,64.6,60.1,54.5,91,76,62,30.00,29.84,7,1,7,0.00
2013-7-1,75.4,68.8,63.5,65.0,60.5,57.6,85,75,65,30.00,29.90,11,1,11,0.00
2013-7-2,69.4,64.9,58.1,62.0,57.5,52.9,94,77,64,30.10,30.00,11,2,11,0.00
2013-7-3,69.1,63.1,58.4,59.8,54.3,49.4,85,73,59,30.14,30.04,14,4,14,0.00
2013-7-4,68.3,61.8,57.6,58.6,55.1,52.9,87,79,66,30.11,30.02,7,0,7,0.00
2013-7-5,69.8,63.3,53.6,60.9,56.1,51.3,95,78,64,30.02,29.94,9,1,9,0.00
2013-7-6,72.3,64.1,54.4,60.8,56.3,52.4,96,77,60,29.97,29.86,6,1,6,0.00
2013-7-7,71.8,63.5,55.4,61.8,57.6,52.7,93,82,68,29.94,29.86,10,1,10,0.00
2013-7-8,73.9,62.9,55.7,62.5,56.6,52.4,92,81,63,30.08,29.92,7,0,7,0.00
2013-7-9,72.1,64.0,56.7,60.1,56.6,53.0,94,78,64,30.11,29.98,10,1,10,0.00
2013-7-10,68.1,61.7,56.0,59.6,55.0,50.4,90,79,66,30.06,29.94,11,2,11,0.00
2013-7-11,68.8,60.1,55.3,57.6,51.9,49.1,84,75,63,30.07,29.98,10,2,10,0.00
2013-7-12,64.5,58.5,52.3,56.5,52.1,48.5,88,80,68,30.09,30.00,6,0,6,0.00
2013-7-13,70.3,61.6,49.8,57.4,51.6,45.9,93,71,46,30.20,30.09,11,2,11,0.00
2013-7-14,70.4,62.7,51.7,58.2,53.4,49.1,92,73,54,30.14,29.98,15,2,15,0.00
2013-7-15,72.1,64.1,55.6,57.9,54.1,47.7,89,71,52,30.05,29.88,15,3,15,0.00
2013-7-16,75.4,68.8,62.0,59.6,54.2,47.1,71,60,48,29.89,29.79,10,2,10,0.00
2013-7-17,72.0,65.3,58.9,59.2,56.3,53.5,84,73,60,30.17,29.85,14,1,14,0.00
2013-7-18,70.3,62.1,56.9,59.5,55.9,53.2,90,80,67,30.22,30.11,9,1,9,0.00
2013-7-19,65.2,63.1,59.9,57.8,56.7,55.0,84,80,76,30.05,30.03,7,1,7,0.00
2013-7-20,68.4,60.3,55.9,59.7,56.5,53.9,95,88,72,30.08,29.94,5,0,5,0.00
2013-7-21,68.4,61.0,54.1,59.8,56.4,51.8,95,85,72,29.97,29.89,4,1,10,0.00
2013-7-22,73.0,63.0,56.6,62.0,57.5,54.6,95,83,65,30.05,29.92,5,0,5,0.00
2013-7-23,71.5,62.7,54.8,59.5,55.4,53.1,95,78,55,30.07,29.96,9,1,9,0.00
2013-7-24,70.3,62.7,55.1,59.4,55.1,51.4,91,77,53,30.05,30.00,7,1,7,0.00
2013-7-25,70.1,65.5,61.0,57.8,55.3,53.0,75,70,62,30.07,30.05,12,2,12,0.00
2013-7-26,69.8,63.1,54.1,58.9,53.7,49.5,91,72,54,30.15,30.06,16,2,16,0.00
2013-7-27,73.0,62.8,52.0,59.4,53.0,49.1,92,71,50,30.16,29.98,9,1,9,0.00
2013-7-28,66.8,59.2,53.5,57.3,53.6,50.6,93,82,69,30.01,29.94,8,0,8,0.00
2013-7-29,70.4,61.2,53.1,57.8,54.1,50.4,93,79,60,29.99,29.94,5,0,5,0.00
2013-7-30,70.3,61.4,54.4,58.3,55.4,52.1,94,82,63,30.12,29.99,7,1,7,0.00
2013-7-31,66.8,60.0,54.5,59.8,56.3,52.2,95,88,75,30.11,29.98,5,0,5,0.00
2013-8-1,68.6,61.8,55.9,58.3,55.6,53.3,92,81,66,30.05,30.01,5,0,9,0.00
2013-8-2,60.9,59.3,57.8,59.0,56.6,53.9,95,90,84,30.11,30.03,6,0,6,0.15
2013-8-3,67.4,61.5,57.6,60.1,57.4,55.3,97,87,71,30.12,30.04,7,1,7,0.00
2013-8-4,70.6,63.1,55.0,60.9,57.1,52.5,94,81,70,30.05,29.93,8,1,8,0.00
2013-8-5,70.1,64.1,56.5,60.1,57.5,53.4,95,80,69,30.00,29.91,8,1,8,0.00
2013-8-6,69.9,62.9,54.2,59.6,55.3,51.3,93,77,61,30.00,29.90,7,1,7,0.00
2013-8-7,77.6,64.8,54.4,64.3,57.2,52.1,95,77,52,30.00,29.93,7,1,7,0.00
2013-8-8,63.2,62.2,61.0,55.5,55.3,55.0,81,78,76,29.94,29.94,3,0,3,0.00
2013-8-9,75.1,63.9,56.0,59.8,56.7,53.7,94,79,55,29.94,29.82,6,1,6,0.00
2013-8-10,71.6,63.8,58.6,63.8,59.8,57.2,96,87,70,30.00,29.87,8,0,8,0.20
2013-8-11,70.1,64.4,59.5,59.5,56.9,54.1,90,77,65,30.05,29.97,7,1,7,0.00
2013-8-12,71.8,62.7,56.7,59.8,56.5,53.2,92,81,59,30.06,29.99,6,0,6,0.00
2013-8-13,70.4,63.3,56.6,59.7,56.5,53.4,93,79,65,30.09,29.91,6,1,6,0.00
2013-8-14,75.8,64.9,54.7,62.8,57.7,51.8,93,79,55,29.94,29.88,6,1,6,0.04
2013-8-15,68.1,63.8,59.5,65.8,62.0,57.8,96,94,89,29.97,29.90,4,0,4,0.04
2013-8-16,76.7,66.0,58.9,64.6,60.0,54.9,97,83,48,29.99,29.92,7,0,7,0.01
2013-8-17,74.6,65.1,58.9,62.8,58.3,55.0,89,79,64,30.06,29.99,9,0,9,0.00
2013-8-18,72.5,63.1,58.6,61.0,56.9,53.3,92,81,66,30.11,30.06,8,1,8,0.00
2013-8-19,72.5,63.6,57.6,61.5,56.2,51.4,90,77,61,30.10,30.05,11,1,11,0.00
2013-8-20,72.3,62.9,56.5,58.1,53.2,47.1,85,71,42,30.16,30.06,12,2,12,0.00
2013-8-21,71.1,62.8,54.4,58.1,53.6,49.4,87,72,53,30.08,29.92,13,2,13,0.00
2013-8-22,73.3,65.6,54.7,58.4,54.6,49.9,85,68,53,29.94,29.78,8,1,8,0.00
2013-8-23,75.1,66.2,60.5,60.7,57.1,54.8,88,73,56,29.86,29.80,8,1,8,0.00
2013-8-24,69.9,62.7,57.0,60.3,56.7,53.2,91,81,66,29.90,29.84,7,0,7,0.00
2013-8-25,66.3,60.7,53.5,57.7,54.5,51.5,95,81,67,29.93,29.85,6,1,6,0.00
2013-8-26,76.3,63.5,58.3,59.8,55.8,53.0,88,77,46,29.94,29.83,8,0,8,0.01
2013-8-27,74.6,64.9,59.3,62.5,58.0,54.9,91,79,62,29.94,29.78,8,0,8,0.00
2013-8-28,74.0,65.9,58.7,65.2,60.3,55.6,96,83,65,29.88,29.82,6,0,6,0.16
2013-8-29,69.6,64.9,60.9,67.4,63.0,58.7,97,94,83,29.98,29.84,7,0,7,0.61
2013-8-30,73.7,65.5,58.1,63.9,58.8,53.2,96,80,53,30.12,29.98,10,0,10,0.01
2013-8-31,67.4,62.2,56.7,59.4,57.0,54.3,93,84,73,30.07,29.83,8,1,8,0.00
2013-9-1,73.7,64.0,56.2,62.9,58.2,54.3,95,82,62,29.87,29.77,6,0,6,0.00
2013-9-2,74.6,63.9,57.8,62.4,57.9,55.2,93,82,63,29.93,29.84,5,0,5,0.00
2013-9-3,66.1,62.5,59.5,63.6,60.1,57.7,97,92,83,30.01,29.92,5,0,5,0.17
2013-9-4,67.6,62.0,58.1,63.0,59.1,56.7,97,91,80,30.04,29.99,7,1,7,0.00
2013-9-5,64.5,60.5,58.3,63.6,58.6,56.7,98,94,87,30.03,29.91,12,0,12,0.14
2013-9-6,66.8,62.5,59.9,64.6,44.9,-99.9,98,85,87,30.09,29.92,6,0,6,0.96
2013-9-7,66.4,61.8,58.7,63.9,59.3,57.0,97,92,78,30.08,30.00,5,0,5,0.00
2013-9-8,71.5,63.4,56.3,63.1,58.5,55.2,97,85,69,30.10,30.01,4,0,4,0.00
2013-9-9,68.9,60.6,56.3,62.6,57.7,55.2,97,90,74,30.06,29.96,6,1,6,0.00
2013-9-10,66.6,60.5,56.0,62.0,57.4,54.9,98,90,70,29.99,29.87,11,2,11,0.00
2013-9-11,74.0,66.8,57.6,61.9,58.8,54.9,93,76,64,29.93,29.85,7,1,7,0.00
2013-9-12,69.9,62.8,58.1,62.7,58.7,56.1,96,87,71,29.99,29.89,4,1,6,0.00
2013-9-13,64.3,60.4,57.5,61.3,58.7,56.2,98,94,87,29.95,29.85,5,0,5,0.02
2013-9-14,63.4,60.2,57.0,59.6,58.1,55.6,96,93,85,29.87,29.72,5,0,5,0.00
2013-9-15,63.2,59.4,56.9,62.6,58.4,55.5,98,96,94,29.79,29.70,6,0,6,0.13
2013-9-16,66.9,60.0,56.6,61.0,58.1,54.9,97,93,80,29.91,29.78,14,1,14,0.05
2013-9-17,61.2,57.6,54.1,57.9,55.3,52.1,97,92,81,29.92,29.85,7,0,7,0.00
2013-9-18,68.3,58.3,52.5,57.7,53.3,50.3,97,84,65,30.06,29.92,8,1,8,0.00
2013-9-19,68.9,59.3,49.8,57.3,52.8,48.4,97,80,52,30.03,29.74,4,1,4,0.00
2013-9-20,71.5,61.0,51.9,59.1,54.1,48.7,95,79,60,29.74,29.57,7,1,7,0.10
2013-9-21,63.4,58.0,53.2,60.0,54.8,52.1,98,89,71,29.70,29.63,6,0,6,0.01
2013-9-22,60.9,57.0,55.1,57.3,54.2,52.5,95,90,78,29.70,29.54,14,1,14,0.30
2013-9-23,62.0,55.5,52.5,58.2,52.8,48.5,97,91,78,29.94,29.70,11,1,11,0.45
2013-9-24,61.0,54.1,48.2,55.0,50.1,46.8,97,87,63,29.94,29.82,11,1,11,0.02
2013-9-25,57.5,52.0,48.6,51.5,48.9,46.4,96,89,74,30.01,29.85,14,1,14,0.06
2013-9-26,58.0,51.0,45.5,54.5,48.4,44.4,98,91,76,30.11,30.01,5,1,5,0.00
2013-9-27,57.6,54.0,48.8,53.4,51.5,46.9,95,91,84,30.10,29.82,12,1,12,0.04
2013-9-28,59.3,55.3,51.4,58.7,54.1,50.3,98,96,92,29.82,29.30,12,1,12,1.34
2013-9-29,55.3,52.9,50.4,53.1,51.2,48.2,97,94,85,29.52,29.13,18,2,18,0.86
2013-9-30,58.9,52.2,48.8,54.9,48.9,46.0,97,89,76,29.89,29.39,8,1,15,0.08
2013-10-1,58.4,51.9,47.1,52.8,47.7,44.9,96,86,68,30.08,29.88,12,1,12,0.12
2013-10-2,54.5,50.9,48.6,51.9,48.6,47.2,95,92,87,30.16,30.03,7,0,7,0.21
2013-10-3,56.3,50.2,46.1,52.4,47.9,44.7,97,92,77,30.43,30.16,6,1,6,0.00
2013-10-4,57.5,50.2,44.3,52.2,47.4,43.2,98,91,73,30.45,30.33,4,1,4,0.01
2013-10-5,60.1,52.0,45.5,55.3,48.8,44.7,98,89,74,30.34,30.11,5,1,5,0.00
2013-10-6,66.6,55.9,45.7,55.7,49.2,44.4,98,80,52,30.11,29.85,9,1,9,0.05
2013-10-7,64.2,55.6,50.5,54.0,50.2,46.2,95,83,58,29.98,29.85,7,1,14,0.01
2013-10-8,54.5,49.6,44.9,53.4,46.8,42.6,97,90,77,30.06,29.94,12,1,12,0.27
2013-10-9,56.0,50.6,46.7,50.3,46.9,42.5,95,87,76,30.12,29.93,7,1,7,0.00
2013-10-10,57.2,51.0,46.8,53.0,48.5,45.7,97,91,79,30.05,29.92,5,0,5,0.00
2013-10-11,56.0,51.6,49.4,52.2,49.1,47.6,95,91,82,30.13,30.05,4,0,4,0.00
2013-10-12,55.3,50.3,46.1,52.2,47.8,44.2,97,91,79,30.19,30.05,10,1,10,0.06
2013-10-13,55.1,48.1,43.3,51.5,45.7,42.2,98,92,80,30.35,30.19,8,2,8,0.00
2013-10-14,53.5,48.2,44.1,50.8,46.2,42.8,98,93,77,30.41,30.34,10,2,10,0.00
2013-10-15,53.2,48.2,43.9,50.8,46.5,42.8,98,94,84,30.37,30.16,4,1,5,0.01
2013-10-16,54.7,49.7,45.8,51.3,47.7,44.4,97,93,87,30.18,30.13,13,3,13,0.00
2013-10-17,54.1,49.6,45.8,50.4,47.8,44.6,97,94,85,30.25,30.18,10,2,10,0.00
2013-10-18,51.1,47.8,45.5,50.6,46.9,44.4,98,97,95,30.23,30.13,7,1,7,0.01
2013-10-19,49.4,46.9,44.6,48.9,46.2,44.1,98,97,95,30.18,30.13,8,1,8,0.00
2013-10-20,49.8,48.4,47.1,48.4,47.2,46.3,97,96,93,30.19,30.13,7,0,7,0.00
2013-10-21,49.4,48.8,48.3,48.3,47.7,47.2,96,96,96,30.10,30.10,6,0,6,0.00
2013-10-22,50.8,48.8,47.4,50.0,34.0,-99.9,98,87,40,30.10,30.02,9,2,9,0.00
2013-10-23,50.2,47.5,44.1,49.0,25.2,-99.9,98,83,44,30.04,29.96,5,0,5,0.00
2013-10-24,49.6,46.9,42.9,45.7,-38.3,-99.9,100,40,45,30.10,30.00,5,0,5,0.01
2013-10-25,52.9,49.2,45.4,51.4,-53.5,-99.9,98,30,44,30.30,30.10,5,1,5,0.02
2013-10-26,54.8,50.1,45.4,51.0,47.7,44.3,98,92,80,30.31,30.17,10,2,10,0.01
2013-10-27,56.9,51.8,47.0,49.7,45.6,40.1,98,81,57,30.18,29.87,25,2,25,0.13
2013-10-28,56.7,53.3,46.1,41.4,34.7,30.0,67,50,39,29.93,29.87,12,2,18,0.00
2013-10-29,52.3,45.1,39.6,46.2,40.2,35.5,95,83,68,30.01,29.92,7,2,7,0.00
2013-10-30,54.5,47.7,40.6,47.8,43.4,39.3,96,86,73,30.10,30.01,9,1,9,0.01
2013-10-31,54.7,52.5,50.4,51.5,50.1,43.8,96,92,79,30.24,30.07,5,0,5,0.00
2013-11-1,58.4,53.5,50.8,52.5,50.6,49.1,97,90,77,30.25,29.82,6,0,6,0.01
2013-11-2,52.3,49.5,42.5,51.8,45.7,38.7,98,87,69,29.85,29.44,22,1,22,0.33
2013-11-3,49.5,43.0,38.2,47.8,39.8,36.9,98,89,71,30.09,29.85,9,1,9,0.02
2013-11-4,48.8,43.2,36.5,45.2,39.7,35.5,98,88,65,30.17,30.03,6,1,6,0.02
2013-11-5,49.4,47.1,43.6,48.9,45.8,42.0,98,95,92,30.24,29.98,11,1,11,0.02
2013-11-6,51.7,47.5,43.5,48.4,45.5,42.2,98,93,83,30.30,30.01,5,1,5,0.05
2013-11-7,51.4,49.0,47.1,50.9,48.1,46.3,98,97,94,30.01,29.68,14,1,14,0.67
2013-11-8,53.2,47.2,42.9,50.0,45.1,41.6,98,93,78,30.13,29.93,7,0,7,0.01
2013-11-9,50.2,46.0,42.6,46.5,44.2,41.5,98,94,83,30.13,30.05,8,1,8,0.05
2013-11-10,49.4,47.1,45.7,46.6,44.9,43.4,97,92,84,30.14,30.08,10,1,10,0.01
2013-11-11,52.9,47.4,43.5,49.1,45.0,41.9,95,91,86,30.14,29.98,7,1,7,0.00
2013-11-12,56.6,51.6,45.7,54.3,50.0,44.4,97,94,90,30.32,30.00,10,0,10,0.05
2013-11-13,54.8,51.5,49.8,51.5,49.5,48.1,96,93,86,30.41,30.29,9,0,9,0.00
2013-11-14,50.4,47.5,42.8,49.6,46.4,41.7,97,96,95,30.29,30.04,4,0,4,0.01
2013-11-15,48.8,45.0,41.8,47.2,44.0,41.3,98,96,92,30.04,29.30,14,1,14,0.00
2013-11-16,50.1,43.1,37.0,45.1,39.3,35.7,97,87,71,29.74,29.32,7,0,7,0.00
2013-11-17,51.0,46.3,40.6,47.4,43.6,37.6,93,90,84,29.87,29.74,14,1,14,0.00
2013-11-18,51.7,49.6,46.8,51.2,48.4,44.3,98,95,90,29.86,29.51,10,0,10,0.46
2013-11-19,52.2,44.6,38.9,51.7,38.4,22.3,98,80,50,30.06,29.51,20,5,20,0.04
2013-11-20,41.6,38.7,36.0,34.3,29.6,25.3,80,70,58,30.49,30.06,16,3,16,0.00
2013-11-21,40.3,37.9,34.6,33.5,30.4,27.0,87,75,64,30.64,30.48,16,4,16,0.00
2013-11-22,42.9,38.3,33.4,36.4,32.7,30.0,90,80,68,30.63,30.44,13,2,13,0.00
2013-11-23,46.4,39.5,34.1,41.8,36.7,32.3,96,90,79,30.44,30.18,8,2,8,0.00
2013-11-24,44.6,39.7,36.2,43.3,38.6,35.2,98,96,93,30.23,30.15,7,2,7,0.00
2013-11-25,46.7,40.8,37.8,45.3,39.6,36.8,98,95,88,30.29,30.23,4,1,4,0.00
2013-11-26,47.7,42.6,36.9,43.9,40.6,35.9,98,93,85,30.25,30.08,4,0,4,0.00
2013-11-27,49.4,45.0,39.2,45.5,41.9,37.6,94,89,81,30.08,29.95,7,2,7,0.00
2013-11-28,43.9,40.2,37.3,43.4,39.4,36.5,98,97,94,30.15,30.00,5,1,5,0.00
2013-11-29,46.7,43.3,38.8,45.3,-20.9,-99.9,98,52,44,30.29,30.15,6,0,6,0.00
2013-11-30,50.1,47.9,44.9,47.3,28.1,-99.9,97,80,44,30.30,30.06,15,1,15,0.00
2013-12-1,53.1,50.3,43.6,51.4,47.7,40.3,98,91,84,30.06,29.71,23,2,23,0.00
2013-12-2,43.6,38.8,33.2,40.6,35.1,30.0,95,87,73,30.04,29.78,17,2,17,0.00
2013-12-3,37.6,35.3,31.5,30.2,23.4,19.8,88,62,49,30.29,30.04,19,3,19,0.00
2013-12-4,37.2,33.1,28.8,30.7,25.8,22.7,84,75,65,30.33,30.27,10,2,10,0.00
2013-12-5,34.3,29.6,26.4,30.2,25.0,20.4,93,83,66,30.30,30.17,11,2,11,0.00
2013-12-6,31.8,29.7,27.3,21.2,16.2,11.5,70,57,46,30.22,30.12,20,9,20,0.00
2013-12-7,28.5,26.0,21.9,15.5,11.7,6.8,75,55,42,30.40,30.21,26,4,26,0.00
2013-12-8,31.5,26.4,21.9,20.4,18.4,15.5,82,72,54,30.55,30.40,6,1,6,0.00
2013-12-9,32.9,29.3,23.8,26.7,23.2,19.7,86,78,65,30.56,30.47,6,0,6,0.00
2013-12-10,38.8,34.6,31.2,35.0,31.7,26.6,93,89,84,30.48,30.40,4,0,4,0.00
2013-12-11,39.1,34.2,30.3,38.1,33.0,29.0,97,95,93,30.40,30.15,5,1,5,0.00
2013-12-12,42.6,38.0,31.6,41.1,36.5,30.3,97,95,83,30.15,30.02,10,0,10,0.00
2013-12-13,46.7,44.5,42.2,45.7,43.7,41.1,98,97,96,30.39,30.10,6,0,6,0.00
2013-12-14,47.3,45.5,44.1,44.9,43.9,42.8,96,94,88,30.41,30.29,8,0,8,0.00
2013-12-15,50.1,47.7,46.0,48.2,46.2,43.8,97,94,92,30.42,30.28,13,1,13,0.00
2013-12-16,47.4,44.3,40.1,46.6,43.6,39.3,98,98,97,30.47,30.25,4,0,4,0.00
2013-12-17,42.8,41.5,40.8,42.3,40.9,22.2,98,98,44,30.25,30.09,5,0,5,0.00
2013-12-18,43.6,41.1,36.5,42.3,34.2,-99.9,100,84,44,30.13,30.00,20,2,20,0.00
2013-12-19,39.3,35.9,32.4,33.4,27.5,21.3,88,72,58,30.33,30.12,9,1,9,0.00
2013-12-20,42.8,37.2,33.2,42.0,35.0,29.2,97,92,77,30.18,29.69,11,1,18,0.03
2013-12-21,43.3,42.2,40.6,42.8,41.6,39.8,98,98,97,30.14,29.82,6,0,6,0.03
2013-12-22,48.5,45.6,43.1,46.8,-13.4,-99.9,99,59,98,30.27,30.13,12,0,12,0.12
2013-12-23,53.9,47.4,40.1,53.9,-23.5,-99.9,100,52,100,30.48,30.08,13,2,17,0.00
2013-12-24,44.8,39.6,35.9,44.8,39.1,-99.9,100,100,100,30.59,30.48,5,2,5,0.00
2013-12-25,39.5,37.5,35.0,39.5,37.5,35.0,100,100,100,30.52,30.38,8,1,8,0.00
2013-12-26,40.8,37.0,33.4,40.8,37.0,33.4,100,100,100,30.38,30.19,4,1,4,0.00
2013-12-27,45.2,40.2,33.7,43.1,-34.0,-99.9,100,48,100,30.35,30.08,4,1,7,0.01
2013-12-28,45.4,42.3,38.0,-99.9,-99.9,-99.9,0,0,100,30.50,30.35,6,1,6,0.00
2013-12-29,43.8,41.0,38.5,41.1,-84.4,-99.9,100,11,100,30.47,30.29,7,0,7,0.00
2013-12-30,43.1,41.4,39.2,39.6,-84.0,-99.9,100,11,100,30.30,30.10,15,1,15,0.00
2013-12-31,45.4,43.1,40.3,45.4,-46.7,-99.9,100,37,100,30.35,30.17,5,0,5,0.00
2014-1-1,43.9,42.4,39.6,43.2,-17.6,-99.9,100,58,100,30.39,30.23,5,0,5,0.01
2014-1-2,51.0,45.6,41.9,51.0,-19.7,-99.9,100,54,100,30.23,29.85,14,1,14,0.00